createdAt,value
2022-09-23T00:03:06.074Z,3.52
2022-09-23T00:06:17.034Z,3.49
2022-09-23T00:09:25.413Z,3.58
2022-09-23T00:12:33.621Z,3.57
2022-09-23T00:15:41.751Z,3.50
2022-09-23T00:18:51.549Z,3.53
2022-09-23T00:21:59.719Z,3.51
2022-09-23T00:25:11.393Z,3.57
2022-09-23T00:28:19.600Z,3.53
2022-09-23T00:31:28.789Z,3.43
2022-09-23T00:34:38.510Z,3.49
2022-09-23T00:37:46.666Z,3.41
2022-09-23T00:40:55.142Z,3.45
2022-09-23T00:44:42.770Z,3.39
2022-09-23T00:47:58.270Z,3.33
2022-09-23T00:51:12.303Z,3.43
2022-09-23T00:54:22.253Z,3.30
2022-09-23T00:57:31.241Z,3.37
2022-09-23T01:00:40.349Z,3.37
2022-09-23T01:03:50.162Z,3.33
2022-09-23T01:06:59.744Z,3.20
2022-09-23T01:10:11.862Z,3.21
2022-09-23T01:13:32.084Z,3.24
2022-09-23T01:16:49.127Z,3.17
2022-09-23T01:20:29.429Z,3.19
2022-09-23T01:24:27.508Z,3.16
2022-09-23T01:28:00.652Z,3.05
2022-09-23T01:31:20.414Z,3.04
2022-09-23T01:34:37.685Z,2.97
2022-09-23T01:37:52.497Z,2.85
2022-09-23T01:41:12.512Z,2.80
2022-09-23T01:44:30.010Z,2.79
2022-09-23T01:47:48.378Z,2.77
2022-09-23T01:51:03.434Z,2.67
2022-09-23T01:54:18.687Z,2.68
2022-09-23T01:57:36.288Z,2.68
2022-09-23T02:00:55.159Z,2.72
2022-09-23T02:04:13.113Z,2.77
2022-09-23T02:07:29.290Z,2.72
2022-09-23T02:10:46.003Z,2.63
2022-09-23T02:13:59.895Z,2.65
2022-09-23T02:17:14.803Z,2.62
2022-09-23T02:20:30.617Z,2.67
2022-09-23T02:23:45.129Z,2.73
2022-09-23T02:26:59.696Z,2.69
2022-09-23T02:30:14.015Z,2.62
2022-09-23T02:33:32.777Z,2.71
2022-09-23T02:36:54.217Z,2.73
2022-09-23T02:40:16.964Z,2.67
2022-09-23T02:43:36.446Z,2.58
2022-09-23T02:46:45.917Z,2.58
2022-09-23T02:49:56.332Z,2.48
2022-09-23T02:53:07.447Z,2.62
2022-09-23T02:56:19.624Z,2.52
2022-09-23T02:59:28.229Z,2.41
2022-09-23T03:03:10.534Z,2.48
2022-09-23T03:06:31.520Z,2.47
2022-09-23T03:09:54.012Z,2.40
2022-09-23T03:13:17.027Z,2.38
2022-09-23T03:16:39.338Z,2.34
2022-09-23T03:19:56.307Z,2.41
2022-09-23T03:23:11.671Z,2.31
2022-09-23T03:26:28.415Z,2.29
2022-09-23T03:29:37.321Z,2.37
2022-09-23T03:32:47.814Z,2.28
2022-09-23T03:36:22.579Z,2.26
2022-09-23T03:39:41.190Z,2.29
2022-09-23T03:42:51.240Z,2.31
2022-09-23T03:46:01.509Z,2.32
2022-09-23T03:49:17.721Z,2.35
2022-09-23T03:52:27.451Z,2.37
2022-09-23T03:55:36.087Z,2.30
2022-09-23T03:58:46.457Z,2.16
2022-09-23T04:01:55.696Z,2.29
2022-09-23T04:05:04.041Z,2.29
2022-09-23T04:08:12.193Z,2.18
2022-09-23T04:11:20.295Z,2.25
2022-09-23T04:14:29.866Z,2.19
2022-09-23T04:17:37.962Z,2.20
2022-09-23T04:20:46.337Z,2.28
2022-09-23T04:23:54.416Z,2.25
2022-09-23T04:27:02.600Z,2.09
2022-09-23T04:30:14.114Z,1.94
2022-09-23T04:33:22.219Z,2.02
2022-09-23T04:36:30.419Z,2.03
2022-09-23T04:39:38.624Z,2.00
2022-09-23T04:42:46.816Z,2.04
2022-09-23T04:46:04.892Z,2.06
2022-09-23T04:49:12.991Z,2.14
2022-09-23T04:52:21.069Z,2.09
2022-09-23T04:55:29.320Z,2.08
2022-09-23T04:58:37.717Z,2.09
2022-09-23T05:01:47.256Z,1.89
2022-09-23T05:04:55.757Z,2.05
2022-09-23T05:08:03.905Z,2.03
2022-09-23T05:11:11.975Z,2.06
2022-09-23T05:14:20.334Z,2.13
2022-09-23T05:17:31.215Z,2.14
2022-09-23T05:20:39.396Z,2.17
2022-09-23T05:23:50.476Z,2.23
2022-09-23T05:26:58.578Z,2.15
2022-09-23T05:30:08.687Z,2.17
2022-09-23T05:33:18.118Z,2.19
2022-09-23T05:36:29.820Z,2.38
2022-09-23T05:39:40.197Z,2.42
2022-09-23T05:42:48.286Z,2.56
2022-09-23T05:46:07.805Z,2.66
2022-09-23T05:49:17.743Z,2.79
2022-09-23T05:52:25.972Z,2.88
2022-09-23T05:55:34.109Z,2.88
2022-09-23T05:58:42.328Z,3.09
2022-09-23T06:01:54.431Z,3.11
2022-09-23T06:05:06.818Z,3.22
2022-09-23T06:08:15.670Z,3.17
2022-09-23T06:11:24.022Z,3.35
2022-09-23T06:14:32.160Z,3.24
2022-09-23T06:17:40.231Z,3.50
2022-09-23T06:20:49.652Z,3.44
2022-09-23T06:24:00.222Z,3.50
2022-09-23T06:27:08.299Z,3.71
2022-09-23T06:30:17.065Z,3.87
2022-09-23T06:33:34.350Z,4.08
2022-09-23T06:36:46.817Z,4.53
2022-09-23T06:39:55.075Z,4.73
2022-09-23T06:43:03.424Z,5.12
2022-09-23T06:46:17.237Z,5.68
2022-09-23T06:49:25.437Z,6.69
2022-09-23T06:52:35.109Z,7.73
2022-09-23T06:55:44.154Z,8.71
2022-09-23T06:58:53.466Z,9.06
2022-09-23T07:02:01.772Z,9.15
2022-09-23T07:05:10.461Z,9.25
2022-09-23T07:08:19.915Z,9.72
2022-09-23T07:11:28.024Z,10.51
2022-09-23T07:14:36.161Z,10.54
2022-09-23T07:17:44.289Z,10.03
2022-09-23T07:20:52.711Z,9.37
2022-09-23T07:24:02.737Z,9.35
2022-09-23T07:27:10.971Z,9.27
2022-09-23T07:30:25.026Z,9.37
2022-09-23T07:33:34.533Z,9.50
2022-09-23T07:36:42.756Z,9.57
2022-09-23T07:39:52.314Z,9.64
2022-09-23T07:43:00.587Z,9.82
2022-09-23T07:46:14.217Z,10.03
2022-09-23T07:49:22.516Z,10.24
2022-09-23T07:52:31.061Z,10.37
2022-09-23T07:55:40.755Z,10.49
2022-09-23T07:59:00.135Z,10.59
2022-09-23T08:02:15.752Z,10.75
2022-09-23T08:05:24.057Z,10.85
2022-09-23T08:08:32.609Z,10.85
2022-09-23T08:11:42.921Z,11.12
2022-09-23T08:14:51.028Z,11.20
2022-09-23T08:18:01.226Z,11.45
2022-09-23T08:21:09.683Z,11.73
2022-09-23T08:24:21.234Z,11.95
2022-09-23T08:27:32.251Z,11.92
2022-09-23T08:30:40.730Z,12.06
2022-09-23T08:33:48.914Z,12.33
2022-09-23T08:36:57.935Z,12.44
2022-09-23T08:40:08.049Z,12.29
2022-09-23T08:43:27.360Z,12.48
2022-09-23T08:46:46.448Z,12.67
2022-09-23T08:50:05.348Z,12.71
2022-09-23T08:53:24.894Z,13.04
2022-09-23T08:56:35.389Z,13.38
2022-09-23T08:59:46.264Z,13.63
2022-09-23T09:02:57.081Z,13.83
2022-09-23T09:06:05.728Z,13.74
2022-09-23T09:09:25.035Z,13.93
2022-09-23T09:12:43.415Z,14.10
2022-09-23T09:16:15.352Z,14.46
2022-09-23T09:19:56.284Z,14.22
2022-09-23T09:23:21.810Z,14.50
2022-09-23T09:26:34.839Z,14.75
2022-09-23T09:29:50.002Z,15.05
2022-09-23T09:33:04.582Z,15.19
2022-09-23T09:36:24.716Z,14.81
2022-09-23T09:39:34.306Z,14.95
2022-09-23T09:42:47.967Z,14.95
2022-09-23T09:46:17.099Z,14.78
2022-09-23T09:49:40.510Z,15.20
2022-09-23T09:52:49.301Z,14.96
2022-09-23T09:56:05.335Z,15.54
2022-09-23T09:59:23.510Z,15.06
2022-09-23T10:02:36.858Z,15.19
2022-09-23T10:05:54.390Z,15.53
2022-09-23T10:09:19.202Z,15.88
2022-09-23T10:12:27.961Z,15.54
2022-09-23T10:15:45.712Z,15.84
2022-09-23T10:18:57.081Z,16.17
2022-09-23T10:22:26.265Z,16.35
2022-09-23T10:25:37.664Z,16.04
2022-09-23T10:28:52.305Z,16.09
2022-09-23T10:32:28.111Z,16.02
2022-09-23T10:35:36.502Z,16.50
2022-09-23T10:38:50.294Z,16.70
2022-09-23T10:42:27.739Z,17.02
2022-09-23T10:45:59.154Z,16.76
2022-09-23T10:49:59.344Z,16.59
2022-09-23T10:53:20.694Z,17.14
2022-09-23T10:56:40.725Z,16.88
2022-09-23T11:00:03.804Z,16.94
2022-09-23T11:04:26.871Z,16.66
2022-09-23T11:07:41.375Z,16.33
2022-09-23T11:11:11.603Z,16.70
2022-09-23T11:14:42.545Z,16.70
2022-09-23T11:18:29.167Z,17.05
2022-09-23T11:22:02.172Z,17.11
2022-09-23T11:25:30.289Z,17.51
2022-09-23T11:29:07.392Z,17.11
2022-09-23T11:32:48.713Z,16.93
2022-09-23T11:36:05.826Z,17.31
2022-09-23T11:39:21.830Z,17.56
2022-09-23T11:42:36.482Z,17.24
2022-09-23T11:45:58.581Z,16.86
2022-09-23T11:49:18.235Z,17.00
2022-09-23T11:52:35.961Z,17.30
2022-09-23T11:55:57.234Z,17.52
2022-09-23T11:59:35.302Z,17.35
2022-09-23T12:03:05.934Z,17.63
2022-09-23T12:06:23.099Z,17.53
2022-09-23T12:09:57.678Z,17.43
2022-09-23T12:13:18.006Z,17.35
2022-09-23T12:16:59.113Z,17.47
2022-09-23T12:20:43.233Z,17.36
2022-09-23T12:24:19.184Z,17.62
2022-09-23T12:27:41.916Z,17.52
2022-09-23T12:30:54.179Z,17.45
2022-09-23T12:34:20.827Z,17.48
2022-09-23T12:37:36.021Z,17.38
2022-09-23T12:40:45.595Z,17.49
2022-09-23T12:43:57.896Z,17.30
2022-09-23T12:47:38.946Z,17.40
2022-09-23T12:50:50.961Z,17.84
2022-09-23T12:54:24.831Z,17.86
2022-09-23T12:57:44.405Z,17.89
2022-09-23T13:01:09.141Z,17.68
2022-09-23T13:05:01.404Z,17.67
2022-09-23T13:08:16.208Z,18.06
2022-09-23T13:11:29.989Z,17.62
2022-09-23T13:14:45.469Z,17.94
2022-09-23T13:17:54.133Z,17.80
2022-09-23T13:21:08.446Z,18.00
2022-09-23T13:24:36.415Z,18.32
2022-09-23T13:27:50.950Z,18.65
2022-09-23T13:31:06.919Z,18.68
2022-09-23T13:34:21.885Z,18.85
2022-09-23T13:37:42.551Z,18.96
2022-09-23T13:40:51.535Z,19.06
2022-09-23T13:44:01.178Z,18.99
2022-09-23T13:47:16.698Z,18.87
2022-09-23T13:50:28.053Z,19.06
2022-09-23T13:53:39.820Z,19.22
2022-09-23T13:56:50.808Z,18.98
2022-09-23T14:00:03.582Z,18.52
2022-09-23T14:03:36.643Z,18.52
2022-09-23T14:06:46.848Z,18.02
2022-09-23T14:09:57.719Z,18.06
2022-09-23T14:13:06.239Z,18.35
2022-09-23T14:16:17.134Z,18.56
2022-09-23T14:19:27.901Z,18.68
2022-09-23T14:22:36.308Z,18.71
2022-09-23T14:25:46.542Z,18.93
2022-09-23T14:28:55.959Z,18.83
2022-09-23T14:32:13.137Z,18.86
2022-09-23T14:35:28.324Z,18.88
2022-09-23T14:38:51.402Z,18.82
2022-09-23T14:42:00.080Z,18.68
2022-09-23T14:45:16.297Z,18.50
2022-09-23T14:48:28.573Z,18.49
2022-09-23T14:51:49.009Z,18.59
2022-09-23T14:54:58.401Z,18.57
2022-09-23T14:58:17.945Z,18.67
2022-09-23T15:01:38.562Z,18.60
2022-09-23T15:04:47.245Z,18.59
2022-09-23T15:08:02.374Z,18.33
2022-09-23T15:11:10.879Z,18.21
2022-09-23T15:14:37.255Z,18.28
2022-09-23T15:17:48.240Z,18.24
2022-09-23T15:21:02.479Z,18.23
2022-09-23T15:24:42.261Z,18.24
2022-09-23T15:28:04.252Z,18.25
2022-09-23T15:31:13.257Z,18.17
2022-09-23T15:34:21.742Z,18.14
2022-09-23T15:37:35.507Z,18.07
2022-09-23T15:40:46.138Z,17.99
2022-09-23T15:43:56.631Z,17.95
2022-09-23T15:47:05.601Z,17.88
2022-09-23T15:50:14.690Z,17.70
2022-09-23T15:53:27.716Z,17.60
2022-09-23T15:56:38.054Z,17.54
2022-09-23T15:59:46.389Z,17.42
2022-09-23T16:02:55.244Z,17.39
2022-09-23T16:06:04.113Z,17.33
2022-09-23T16:09:13.764Z,17.29
2022-09-23T16:12:23.619Z,17.03
2022-09-23T16:15:33.652Z,16.88
2022-09-23T16:18:43.872Z,16.68
2022-09-23T16:21:52.412Z,16.56
2022-09-23T16:25:00.590Z,16.38
2022-09-23T16:28:12.056Z,16.21
2022-09-23T16:31:21.481Z,16.12
2022-09-23T16:34:29.943Z,15.98
2022-09-23T16:37:38.500Z,15.67
2022-09-23T16:40:47.464Z,15.57
2022-09-23T16:43:57.680Z,15.44
2022-09-23T16:47:06.016Z,15.28
2022-09-23T16:50:17.166Z,15.11
2022-09-23T16:53:26.401Z,15.09
2022-09-23T16:56:35.316Z,14.77
2022-09-23T17:00:02.648Z,14.51
2022-09-23T17:03:31.012Z,14.28
2022-09-23T17:06:44.749Z,14.08
2022-09-23T17:09:53.178Z,13.84
2022-09-23T17:13:01.649Z,13.62
2022-09-23T17:16:22.744Z,13.49
2022-09-23T17:19:30.992Z,13.33
2022-09-23T17:22:39.351Z,13.14
2022-09-23T17:25:49.439Z,13.04
2022-09-23T17:28:59.389Z,12.90
2022-09-23T17:32:09.487Z,12.71
2022-09-23T17:35:17.948Z,12.64
2022-09-23T17:38:29.459Z,12.50
2022-09-23T17:41:39.071Z,12.47
2022-09-23T17:44:48.246Z,12.31
2022-09-23T17:47:57.701Z,12.33
2022-09-23T17:51:11.521Z,12.43
2022-09-23T17:54:20.329Z,12.39
2022-09-23T17:57:28.739Z,12.02
2022-09-23T18:00:36.969Z,11.75
2022-09-23T18:03:47.470Z,11.65
2022-09-23T18:06:55.651Z,11.57
2022-09-23T18:10:04.376Z,11.69
2022-09-23T18:13:13.291Z,11.55
2022-09-23T18:16:26.343Z,11.45
2022-09-23T18:19:36.387Z,11.40
2022-09-23T18:22:44.986Z,11.33
2022-09-23T18:25:53.780Z,11.26
2022-09-23T18:29:03.520Z,11.20
2022-09-23T18:32:14.168Z,11.12
2022-09-23T18:35:24.264Z,11.11
2022-09-23T18:38:32.647Z,10.98
2022-09-23T18:41:41.096Z,10.87
2022-09-23T18:44:54.149Z,10.80
2022-09-23T18:48:20.182Z,10.76
2022-09-23T18:51:32.350Z,10.67
2022-09-23T18:54:40.412Z,10.63
2022-09-23T18:57:49.026Z,10.56
2022-09-23T19:00:57.410Z,10.38
2022-09-23T19:04:06.802Z,10.27
2022-09-23T19:07:17.027Z,10.19
2022-09-23T19:10:25.489Z,10.46
2022-09-23T19:13:35.859Z,10.33
2022-09-23T19:16:44.066Z,10.06
2022-09-23T19:19:52.438Z,9.81
2022-09-23T19:23:01.995Z,9.70
2022-09-23T19:26:13.358Z,9.63
2022-09-23T19:29:22.189Z,9.64
2022-09-23T19:32:33.351Z,9.67
2022-09-23T19:35:48.529Z,9.77
2022-09-23T19:39:04.340Z,9.75
2022-09-23T19:42:12.673Z,9.76
2022-09-23T19:45:21.228Z,9.72
2022-09-23T19:48:29.561Z,9.64
2022-09-23T19:51:37.885Z,9.65
2022-09-23T19:54:48.605Z,9.65
2022-09-23T19:57:56.751Z,9.52
2022-09-23T20:01:08.440Z,9.58
2022-09-23T20:04:16.905Z,9.58
2022-09-23T20:07:25.406Z,9.47
2022-09-23T20:10:35.345Z,9.36
2022-09-23T20:13:47.138Z,9.31
2022-09-23T20:16:56.595Z,9.36
2022-09-23T20:20:06.990Z,9.30
2022-09-23T20:23:15.156Z,9.28
2022-09-23T20:26:42.289Z,9.28
2022-09-23T20:29:51.138Z,9.23
2022-09-23T20:33:00.923Z,9.31
2022-09-23T20:36:09.660Z,9.37
2022-09-23T20:39:18.030Z,9.35
2022-09-23T20:42:28.425Z,9.33
2022-09-23T20:45:36.613Z,9.37
2022-09-23T20:48:47.457Z,9.27
2022-09-23T20:51:55.861Z,9.28
2022-09-23T20:55:04.389Z,9.29
2022-09-23T20:58:13.799Z,9.33
2022-09-23T21:01:23.185Z,9.32
2022-09-23T21:04:32.864Z,9.34
2022-09-23T21:07:41.190Z,9.35
2022-09-23T21:10:55.612Z,9.38
2022-09-23T21:14:05.553Z,9.31
2022-09-23T21:17:14.275Z,9.30
2022-09-23T21:20:22.477Z,9.31
2022-09-23T21:23:33.367Z,9.36
2022-09-23T21:26:41.554Z,9.31
2022-09-23T21:29:51.449Z,9.35
2022-09-23T21:33:01.824Z,9.41
2022-09-23T21:36:11.228Z,9.42
2022-09-23T21:39:19.756Z,9.36
2022-09-23T21:42:28.486Z,9.40
2022-09-23T21:45:38.666Z,9.46
2022-09-23T21:48:49.870Z,9.51
2022-09-23T21:52:00.931Z,9.52
2022-09-23T21:55:09.639Z,9.50
2022-09-23T21:58:17.803Z,9.65
2022-09-23T22:01:30.347Z,9.65
2022-09-23T22:04:38.589Z,9.61
2022-09-23T22:07:46.817Z,9.57
2022-09-23T22:10:56.066Z,9.56
2022-09-23T22:14:08.402Z,9.49
2022-09-23T22:17:19.178Z,9.36
2022-09-23T22:20:28.118Z,9.41
2022-09-23T22:23:36.495Z,9.34
2022-09-23T22:26:46.083Z,9.37
2022-09-23T22:30:11.674Z,9.40
2022-09-23T22:33:22.009Z,9.43
2022-09-23T22:36:30.347Z,9.46
2022-09-23T22:39:38.905Z,9.48
2022-09-23T22:42:48.469Z,9.56
2022-09-23T22:45:57.059Z,9.61
2022-09-23T22:49:07.427Z,9.51
2022-09-23T22:52:21.172Z,9.54
2022-09-23T22:55:31.106Z,9.66
2022-09-23T22:58:39.579Z,9.66
2022-09-23T23:01:48.307Z,9.73
2022-09-23T23:05:00.391Z,9.74
2022-09-23T23:08:08.537Z,9.72
2022-09-23T23:11:16.670Z,9.64
2022-09-23T23:14:28.203Z,9.73
2022-09-23T23:17:36.468Z,9.72
2022-09-23T23:20:46.111Z,9.72
2022-09-23T23:23:55.238Z,9.76
2022-09-23T23:27:03.371Z,9.76
2022-09-23T23:30:13.162Z,9.81
2022-09-23T23:33:21.420Z,9.80
2022-09-23T23:36:31.502Z,9.83
2022-09-23T23:39:39.671Z,9.85
2022-09-23T23:42:48.135Z,9.82
2022-09-23T23:45:56.335Z,9.76
2022-09-23T23:49:06.818Z,9.75
2022-09-23T23:52:16.252Z,9.73
2022-09-23T23:55:25.775Z,9.67
2022-09-23T23:58:34.656Z,9.59
